createdAt,value
2017-11-18T00:02:09.843Z,31.83
2017-11-18T00:04:39.016Z,29.37
2017-11-18T00:07:07.389Z,28.87
2017-11-18T00:09:35.765Z,30.25
2017-11-18T00:12:04.154Z,30.80
2017-11-18T00:14:32.539Z,29.83
2017-11-18T00:17:01.097Z,29.67
2017-11-18T00:19:29.484Z,31.55
2017-11-18T00:21:57.857Z,31.37
2017-11-18T00:24:26.261Z,28.20
2017-11-18T00:26:54.635Z,29.33
2017-11-18T00:29:23.061Z,31.87
2017-11-18T00:31:51.438Z,28.10
2017-11-18T00:34:19.808Z,33.92
2017-11-18T00:36:48.212Z,28.55
2017-11-18T00:39:16.601Z,29.42
2017-11-18T00:41:45.176Z,28.10
2017-11-18T00:44:13.548Z,31.52
2017-11-18T00:46:41.926Z,30.45
2017-11-18T00:49:10.321Z,29.50
2017-11-18T00:51:38.700Z,31.62
2017-11-18T00:54:30.861Z,30.55
2017-11-18T00:56:59.237Z,28.87
2017-11-18T00:59:27.604Z,28.27
2017-11-18T01:01:56.002Z,28.02
2017-11-18T01:04:24.374Z,29.65
2017-11-18T01:06:52.884Z,31.85
2017-11-18T01:09:22.016Z,40.45
2017-11-18T01:11:50.386Z,40.67
2017-11-18T01:14:18.771Z,35.20
2017-11-18T01:16:47.136Z,28.17
2017-11-18T01:19:15.543Z,28.17
2017-11-18T01:21:43.936Z,27.35
2017-11-18T01:24:12.315Z,28.67
2017-11-18T01:26:40.710Z,28.50
2017-11-18T01:29:10.580Z,28.12
2017-11-18T01:31:39.009Z,31.05
2017-11-18T01:34:08.145Z,26.52
2017-11-18T01:36:36.525Z,26.98
2017-11-18T01:39:04.960Z,29.58
2017-11-18T01:41:33.327Z,27.35
2017-11-18T01:44:01.828Z,28.95
2017-11-18T01:46:31.034Z,29.33
2017-11-18T01:49:00.175Z,28.17
2017-11-18T01:51:28.576Z,27.50
2017-11-18T01:53:56.950Z,28.40
2017-11-18T01:56:25.457Z,27.70
2017-11-18T01:58:54.605Z,28.83
2017-11-18T02:01:22.975Z,27.48
2017-11-18T02:03:51.367Z,29.37
2017-11-18T02:06:19.735Z,28.67
2017-11-18T02:08:48.321Z,27.85
2017-11-18T02:11:16.700Z,28.58
2017-11-18T02:13:45.086Z,27.62
2017-11-18T02:16:13.489Z,27.85
2017-11-18T02:18:41.859Z,31.00
2017-11-18T02:21:10.519Z,29.17
2017-11-18T02:23:38.905Z,30.35
2017-11-18T02:26:07.291Z,29.73
2017-11-18T02:28:35.705Z,28.67
2017-11-18T02:31:04.887Z,76.80
2017-11-18T02:33:33.471Z,33.20
2017-11-18T02:36:01.851Z,29.37
2017-11-18T02:38:30.230Z,30.33
2017-11-18T02:40:58.660Z,28.20
2017-11-18T02:43:27.044Z,27.27
2017-11-18T02:45:55.495Z,27.75
2017-11-18T02:48:24.644Z,28.90
2017-11-18T02:50:53.023Z,26.62
2017-11-18T02:53:21.449Z,27.75
2017-11-18T02:55:50.609Z,28.35
2017-11-18T02:58:19.468Z,28.20
2017-11-18T03:00:47.837Z,28.95
2017-11-18T03:03:16.234Z,30.02
2017-11-18T03:05:44.638Z,29.65
2017-11-18T03:08:13.004Z,28.00
2017-11-18T03:10:41.416Z,29.77
2017-11-18T03:13:10.558Z,29.65
2017-11-18T03:15:38.945Z,33.25
2017-11-18T03:18:07.431Z,30.27
2017-11-18T03:20:35.796Z,32.53
2017-11-18T03:23:04.490Z,31.08
2017-11-18T03:25:32.862Z,28.33
2017-11-18T03:28:01.234Z,31.23
2017-11-18T03:30:29.709Z,29.83
2017-11-18T03:32:58.104Z,29.77
2017-11-18T03:35:26.680Z,30.23
2017-11-18T03:37:55.050Z,28.73
2017-11-18T03:40:23.423Z,28.35
2017-11-18T03:42:51.846Z,29.33
2017-11-18T03:45:20.225Z,30.65
2017-11-18T03:47:48.679Z,30.58
2017-11-18T03:50:17.084Z,29.75
2017-11-18T03:52:45.461Z,30.15
2017-11-18T03:55:13.827Z,29.80
2017-11-18T03:57:42.228Z,31.75
2017-11-18T04:00:10.597Z,29.00
2017-11-18T04:02:38.980Z,31.77
2017-11-18T04:05:07.376Z,28.95
2017-11-18T04:07:35.747Z,28.95
2017-11-18T04:10:04.919Z,31.45
2017-11-18T04:12:33.319Z,27.90
2017-11-18T04:15:01.695Z,28.33
2017-11-18T04:17:30.098Z,30.52
2017-11-18T04:19:59.240Z,29.85
2017-11-18T04:22:27.684Z,29.10
2017-11-18T04:24:56.826Z,29.65
2017-11-18T04:27:25.205Z,31.12
2017-11-18T04:29:53.608Z,30.50
2017-11-18T04:32:21.985Z,29.60
2017-11-18T04:34:50.499Z,28.00
2017-11-18T04:37:18.884Z,29.92
2017-11-18T04:39:47.275Z,31.05
2017-11-18T04:42:15.669Z,31.37
2017-11-18T04:44:44.053Z,29.17
2017-11-18T04:47:12.831Z,31.17
2017-11-18T04:49:41.217Z,33.35
2017-11-18T04:52:09.587Z,31.75
2017-11-18T04:54:37.990Z,34.05
2017-11-18T04:57:06.373Z,31.48
2017-11-18T04:59:34.877Z,31.30
2017-11-18T05:02:04.008Z,33.33
2017-11-18T05:04:32.374Z,34.30
2017-11-18T05:07:00.775Z,33.38
2017-11-18T05:09:29.150Z,31.25
2017-11-18T05:11:57.848Z,32.20
2017-11-18T05:14:26.218Z,33.28
2017-11-18T05:16:54.592Z,32.60
2017-11-18T05:19:22.986Z,33.00
2017-11-18T05:21:51.392Z,34.30
2017-11-18T05:24:19.809Z,32.65
2017-11-18T05:26:48.225Z,36.17
2017-11-18T05:29:16.600Z,37.15
2017-11-18T05:31:44.991Z,32.28
2017-11-18T05:34:14.935Z,36.42
2017-11-18T05:36:44.291Z,39.00
2017-11-18T05:39:12.794Z,42.62
2017-11-18T05:41:41.163Z,43.40
2017-11-18T05:44:09.556Z,40.15
2017-11-18T05:46:37.931Z,39.60
2017-11-18T05:49:06.703Z,38.70
2017-11-18T05:51:35.075Z,40.92
2017-11-18T05:54:03.456Z,47.72
2017-11-18T05:56:31.847Z,48.75
2017-11-18T05:59:00.215Z,47.55
2017-11-18T06:01:28.679Z,45.90
2017-11-18T06:03:57.057Z,43.50
2017-11-18T06:06:25.435Z,43.15
2017-11-18T06:08:53.839Z,41.20
2017-11-18T06:11:22.214Z,41.65
2017-11-18T06:13:50.625Z,42.38
2017-11-18T06:16:19.770Z,45.03
2017-11-18T06:18:48.168Z,43.67
2017-11-18T06:21:16.561Z,40.25
2017-11-18T06:23:44.931Z,42.28
2017-11-18T06:26:13.356Z,43.63
2017-11-18T06:28:42.502Z,48.72
2017-11-18T06:31:10.896Z,42.65
2017-11-18T06:33:39.295Z,44.22
2017-11-18T06:36:07.675Z,43.38
2017-11-18T06:38:36.851Z,46.65
2017-11-18T06:41:05.224Z,47.50
2017-11-18T06:43:34.411Z,47.95
2017-11-18T06:46:02.833Z,46.97
2017-11-18T06:48:31.973Z,43.67
2017-11-18T06:51:00.485Z,44.05
2017-11-18T06:53:28.864Z,45.92
2017-11-18T06:55:57.246Z,42.75
2017-11-18T06:58:25.648Z,45.00
2017-11-18T07:00:54.850Z,42.72
2017-11-18T07:03:24.191Z,39.63
2017-11-18T07:05:52.564Z,37.63
2017-11-18T07:08:20.953Z,40.42
2017-11-18T07:10:49.361Z,40.40
2017-11-18T07:13:17.745Z,39.63
2017-11-18T07:15:46.489Z,39.78
2017-11-18T07:18:14.871Z,39.78
2017-11-18T07:20:43.247Z,39.08
2017-11-18T07:23:11.638Z,40.53
2017-11-18T07:25:40.011Z,38.50
2017-11-18T07:28:08.424Z,38.97
2017-11-18T07:30:38.315Z,40.47
2017-11-18T07:33:07.137Z,42.03
2017-11-18T07:35:36.296Z,40.78
2017-11-18T07:38:05.495Z,41.80
2017-11-18T07:40:34.070Z,39.20
2017-11-18T07:43:02.464Z,40.55
2017-11-18T07:45:30.840Z,50.50
2017-11-18T07:47:59.239Z,38.95
2017-11-18T07:50:27.624Z,41.00
2017-11-18T07:52:56.477Z,40.70
2017-11-18T07:55:24.921Z,40.50
2017-11-18T07:57:53.318Z,43.38
2017-11-18T08:00:21.740Z,41.75
2017-11-18T08:02:51.759Z,40.65
2017-11-18T08:05:20.184Z,38.03
2017-11-18T08:07:48.554Z,40.05
2017-11-18T08:10:16.943Z,42.62
2017-11-18T08:12:45.364Z,38.05
2017-11-18T08:15:13.743Z,38.03
2017-11-18T08:17:42.173Z,37.65
2017-11-18T08:20:10.561Z,38.92
2017-11-18T08:22:38.932Z,35.53
2017-11-18T08:25:07.333Z,33.85
2017-11-18T08:27:35.699Z,39.35
2017-11-18T08:30:04.197Z,38.38
2017-11-18T08:32:32.573Z,35.95
2017-11-18T08:35:01.020Z,34.47
2017-11-18T08:37:29.583Z,32.95
2017-11-18T08:39:58.720Z,34.88
2017-11-18T08:42:27.372Z,33.10
2017-11-18T08:44:56.502Z,33.58
2017-11-18T08:47:24.884Z,32.95
2017-11-18T08:49:53.284Z,34.63
2017-11-18T08:52:21.654Z,31.92
2017-11-18T08:54:50.226Z,28.40
2017-11-18T08:57:18.611Z,28.20
2017-11-18T08:59:46.995Z,30.08
2017-11-18T09:02:15.412Z,28.75
2017-11-18T09:04:43.779Z,32.58
2017-11-18T09:07:12.285Z,26.95
2017-11-18T09:09:41.423Z,27.77
2017-11-18T09:12:09.792Z,28.73
2017-11-18T09:14:38.194Z,29.73
2017-11-18T09:17:06.573Z,27.65
2017-11-18T09:19:35.270Z,26.85
2017-11-18T09:22:03.646Z,26.85
2017-11-18T09:24:32.016Z,25.90
2017-11-18T09:27:00.408Z,26.27
2017-11-18T09:29:28.772Z,25.90
2017-11-18T09:31:57.487Z,21.87
2017-11-18T09:34:25.870Z,23.40
2017-11-18T09:36:55.014Z,24.33
2017-11-18T09:39:24.251Z,22.10
2017-11-18T09:41:52.621Z,23.80
2017-11-18T09:44:21.265Z,19.83
2017-11-18T09:46:49.636Z,22.90
2017-11-18T09:49:18.002Z,25.23
2017-11-18T09:51:46.621Z,22.33
2017-11-18T09:54:15.000Z,25.62
2017-11-18T09:56:43.510Z,21.92
2017-11-18T09:59:12.665Z,19.48
2017-11-18T10:01:41.038Z,20.95
2017-11-18T10:04:09.439Z,22.42
2017-11-18T10:06:38.342Z,23.50
2017-11-18T10:09:07.032Z,22.08
2017-11-18T10:11:35.409Z,22.80
2017-11-18T10:14:03.791Z,22.73
2017-11-18T10:16:32.183Z,21.50
2017-11-18T10:19:00.558Z,21.83
2017-11-18T10:21:29.011Z,23.33
2017-11-18T10:23:57.535Z,21.40
2017-11-18T10:26:25.991Z,22.15
2017-11-18T10:28:54.967Z,23.50
2017-11-18T10:31:23.350Z,22.02
2017-11-18T10:33:51.779Z,23.15
2017-11-18T10:36:20.928Z,21.77
2017-11-18T10:38:49.305Z,23.48
2017-11-18T10:41:17.741Z,21.52
2017-11-18T10:43:46.152Z,21.70
2017-11-18T10:46:14.976Z,21.45
2017-11-18T10:48:43.356Z,19.70
2017-11-18T10:51:11.797Z,19.87
2017-11-18T10:53:40.202Z,21.00
2017-11-18T10:56:08.676Z,18.35
2017-11-18T10:58:37.484Z,19.87
2017-11-18T11:01:06.630Z,20.20
2017-11-18T11:03:35.143Z,16.83
2017-11-18T11:06:04.420Z,15.52
2017-11-18T11:08:32.870Z,16.23
2017-11-18T11:11:01.363Z,17.70
2017-11-18T11:13:29.744Z,16.83
2017-11-18T11:15:58.283Z,14.95
2017-11-18T11:18:26.713Z,15.95
2017-11-18T11:20:55.161Z,17.15
2017-11-18T11:23:24.604Z,18.10
2017-11-18T11:25:53.000Z,15.80
2017-11-18T11:28:21.386Z,17.62
2017-11-18T11:30:49.787Z,14.60
2017-11-18T11:33:18.250Z,15.35
2017-11-18T11:35:46.964Z,16.42
2017-11-18T11:38:16.169Z,16.23
2017-11-18T11:40:45.303Z,15.02
2017-11-18T11:43:13.693Z,14.50
2017-11-18T11:45:42.071Z,14.98
2017-11-18T11:48:10.636Z,13.95
2017-11-18T11:50:39.012Z,16.42
2017-11-18T11:53:07.913Z,13.60
2017-11-18T11:55:36.331Z,17.00
2017-11-18T11:58:04.753Z,14.98
2017-11-18T12:00:33.189Z,14.43
2017-11-18T12:03:01.577Z,14.80
2017-11-18T12:05:30.775Z,15.35
2017-11-18T12:07:59.949Z,15.18
2017-11-18T12:10:28.323Z,15.00
2017-11-18T12:12:56.729Z,15.07
2017-11-18T12:15:25.882Z,15.25
2017-11-18T12:17:54.258Z,14.95
2017-11-18T12:20:22.663Z,13.20
2017-11-18T12:22:51.049Z,14.10
2017-11-18T12:25:19.508Z,14.80
2017-11-18T12:27:47.892Z,15.95
2017-11-18T12:30:16.586Z,14.55
2017-11-18T12:32:45.315Z,14.10
2017-11-18T12:35:13.741Z,13.18
2017-11-18T12:37:42.440Z,15.00
2017-11-18T12:40:10.885Z,13.27
2017-11-18T12:42:39.277Z,14.77
2017-11-18T12:45:08.461Z,14.82
2017-11-18T12:47:36.832Z,14.32
2017-11-18T12:50:05.272Z,13.80
2017-11-18T12:52:34.421Z,14.75
2017-11-18T12:55:02.877Z,14.43
2017-11-18T12:57:31.277Z,16.70
2017-11-18T12:59:59.679Z,16.73
2017-11-18T13:02:28.207Z,17.00
2017-11-18T13:04:57.376Z,26.40
2017-11-18T13:07:25.745Z,24.77
2017-11-18T13:09:54.228Z,30.50
2017-11-18T13:12:22.688Z,14.68
2017-11-18T13:14:51.101Z,13.90
2017-11-18T13:17:20.261Z,16.15
2017-11-18T13:19:48.640Z,14.87
2017-11-18T13:22:17.044Z,16.58
2017-11-18T13:24:45.458Z,14.18
2017-11-18T13:27:13.841Z,15.27
2017-11-18T13:29:42.240Z,14.20
2017-11-18T13:32:10.613Z,16.48
2017-11-18T13:34:39.221Z,15.35
2017-11-18T13:37:07.600Z,14.60
2017-11-18T13:39:35.972Z,14.85
2017-11-18T13:42:04.368Z,15.70
2017-11-18T13:44:32.760Z,16.00
2017-11-18T13:47:01.400Z,13.65
2017-11-18T13:49:29.810Z,16.27
2017-11-18T13:51:58.180Z,16.27
2017-11-18T13:54:26.594Z,16.50
2017-11-18T13:56:55.734Z,15.45
2017-11-18T13:59:24.426Z,17.62
2017-11-18T14:01:52.791Z,15.20
2017-11-18T14:04:21.252Z,14.13
2017-11-18T14:06:49.669Z,14.77
2017-11-18T14:09:18.086Z,26.40
2017-11-18T14:11:47.442Z,20.33
2017-11-18T14:14:15.866Z,20.85
2017-11-18T14:16:44.257Z,15.65
2017-11-18T14:19:13.419Z,15.57
2017-11-18T14:21:41.800Z,15.95
2017-11-18T14:24:10.317Z,15.65
2017-11-18T14:26:39.464Z,14.38
2017-11-18T14:29:07.861Z,16.50
2017-11-18T14:31:36.298Z,17.30
2017-11-18T14:34:04.699Z,15.57
2017-11-18T14:36:33.273Z,15.50
2017-11-18T14:39:01.769Z,14.75
2017-11-18T14:41:30.284Z,16.35
2017-11-18T14:43:58.857Z,15.70
2017-11-18T14:46:27.240Z,13.82
2017-11-18T14:48:56.026Z,13.40
2017-11-18T14:51:24.502Z,15.90
2017-11-18T14:53:52.993Z,13.68
2017-11-18T14:56:21.445Z,13.50
2017-11-18T14:58:49.835Z,14.50
2017-11-18T15:01:19.057Z,13.18
2017-11-18T15:03:48.217Z,12.75
2017-11-18T15:06:16.746Z,13.62
2017-11-18T15:08:46.227Z,13.73
2017-11-18T15:11:14.757Z,13.02
2017-11-18T15:13:43.491Z,14.25
2017-11-18T15:16:18.051Z,14.52
2017-11-18T15:18:56.996Z,13.50
2017-11-18T15:24:36.791Z,16.80
2017-11-18T15:27:10.803Z,14.70
2017-11-18T15:29:42.471Z,13.32
2017-11-18T15:32:29.714Z,13.62
2017-11-18T15:35:01.490Z,11.88
2017-11-18T15:40:44.903Z,11.52
2017-11-18T15:43:14.889Z,12.40
2017-11-18T15:45:48.157Z,10.65
2017-11-18T15:48:22.167Z,10.38
2017-11-18T15:51:08.369Z,11.98
2017-11-18T15:53:42.339Z,12.20
2017-11-18T15:56:18.160Z,11.48
2017-11-18T15:58:48.966Z,13.25
2017-11-18T16:01:23.176Z,11.93
2017-11-18T16:03:55.423Z,13.55
2017-11-18T16:06:27.188Z,15.23
2017-11-18T16:08:56.353Z,13.90
2017-11-18T16:11:24.812Z,14.85
2017-11-18T16:13:53.208Z,13.55
2017-11-18T16:16:21.604Z,13.43
2017-11-18T16:18:50.812Z,11.18
2017-11-18T16:21:19.975Z,12.30
2017-11-18T16:23:48.441Z,13.50
2017-11-18T16:26:16.872Z,11.90
2017-11-18T16:28:46.017Z,12.32
2017-11-18T16:31:14.686Z,12.55
2017-11-18T16:33:43.160Z,10.55
2017-11-18T16:36:11.548Z,10.35
2017-11-18T16:38:40.003Z,10.48
2017-11-18T16:41:08.449Z,10.77
2017-11-18T16:43:37.319Z,10.60
2017-11-18T16:46:05.736Z,10.32
2017-11-18T16:48:34.892Z,10.10
2017-11-18T16:51:03.324Z,10.85
2017-11-18T16:53:32.696Z,18.92
2017-11-18T16:56:01.420Z,18.58
2017-11-18T16:58:29.841Z,11.70
2017-11-18T17:00:59.020Z,12.25
2017-11-18T17:03:27.425Z,12.45
2017-11-18T17:05:55.863Z,9.85
2017-11-18T17:08:24.392Z,10.70
2017-11-18T17:10:52.806Z,10.85
2017-11-18T17:13:21.284Z,11.52
2017-11-18T17:15:49.715Z,11.35
2017-11-18T17:18:18.158Z,10.07
2017-11-18T17:20:46.680Z,8.52
2017-11-18T17:23:15.329Z,10.90
2017-11-18T17:25:43.709Z,10.55
2017-11-18T17:28:12.190Z,11.23
2017-11-18T17:30:40.585Z,11.85
2017-11-18T17:33:09.298Z,10.40
2017-11-18T17:35:37.729Z,13.57
2017-11-18T17:38:06.175Z,11.38
2017-11-18T17:40:34.620Z,10.85
2017-11-18T17:43:03.000Z,10.93
2017-11-18T17:45:32.426Z,11.30
2017-11-18T17:48:00.905Z,10.35
2017-11-18T17:50:29.288Z,12.23
2017-11-18T17:52:57.712Z,12.27
2017-11-18T17:55:26.090Z,9.10
2017-11-18T18:00:29.338Z,9.82
2017-11-18T18:02:59.031Z,10.30
2017-11-18T18:05:27.418Z,10.73
2017-11-18T18:07:55.831Z,12.57
2017-11-18T18:10:24.247Z,10.75
2017-11-18T18:12:52.627Z,10.32
2017-11-18T18:15:21.106Z,11.23
2017-11-18T18:17:49.474Z,10.43
2017-11-18T18:20:17.848Z,9.68
2017-11-18T18:22:47.017Z,8.80
2017-11-18T18:25:15.396Z,9.95
2017-11-18T18:27:43.893Z,8.43
2017-11-18T18:30:13.488Z,9.07
2017-11-18T18:32:42.805Z,9.48
2017-11-18T18:35:11.241Z,9.25
2017-11-18T18:37:39.740Z,10.05
2017-11-18T18:40:08.191Z,8.05
2017-11-18T18:42:36.591Z,9.93
2017-11-18T18:45:05.051Z,7.85
2017-11-18T18:47:34.238Z,8.15
2017-11-18T18:50:02.608Z,8.77
2017-11-18T18:52:32.871Z,8.00
2017-11-18T18:55:02.797Z,9.20
2017-11-18T18:57:31.206Z,8.00
2017-11-18T18:59:59.629Z,7.57
2017-11-18T19:02:28.024Z,7.80
2017-11-18T19:04:56.518Z,7.32
2017-11-18T19:07:24.886Z,8.02
2017-11-18T19:09:53.257Z,6.78
2017-11-18T19:12:21.652Z,6.37
2017-11-18T19:14:50.064Z,7.50
2017-11-18T19:17:18.770Z,6.37
2017-11-18T19:19:47.151Z,7.43
2017-11-18T19:22:15.925Z,4.75
2017-11-18T19:24:44.854Z,8.63
2017-11-18T19:27:13.641Z,8.05
2017-11-18T19:29:42.331Z,6.25
2017-11-18T19:32:11.409Z,8.75
2017-11-18T19:34:39.860Z,7.80
2017-11-18T19:37:08.690Z,7.53
2017-11-18T19:39:38.284Z,8.65
2017-11-18T19:42:07.366Z,7.82
2017-11-18T19:44:36.060Z,8.55
2017-11-18T19:47:04.684Z,8.80
2017-11-18T19:49:33.477Z,9.18
2017-11-18T19:52:02.251Z,9.85
2017-11-18T19:54:31.820Z,9.25
2017-11-18T19:57:00.387Z,9.77
2017-11-18T19:59:29.173Z,8.30
2017-11-18T20:01:58.004Z,9.45
2017-11-18T20:04:26.741Z,9.00
2017-11-18T20:06:55.789Z,8.02
2017-11-18T20:09:25.990Z,9.88
2017-11-18T20:11:56.089Z,9.23
2017-11-18T20:14:25.243Z,7.82
2017-11-18T20:16:54.178Z,11.18
2017-11-18T20:19:22.806Z,8.40
2017-11-18T20:21:52.286Z,11.05
2017-11-18T20:24:21.262Z,9.45
2017-11-18T20:26:50.274Z,11.10
2017-11-18T20:29:19.918Z,9.40
2017-11-18T20:31:48.492Z,9.70
2017-11-18T20:34:17.124Z,10.18
2017-11-18T20:36:45.801Z,9.48
2017-11-18T20:39:14.513Z,9.93
2017-11-18T20:41:43.070Z,9.35
2017-11-18T20:44:11.853Z,9.57
2017-11-18T20:46:40.385Z,10.70
2017-11-18T20:49:10.192Z,10.82
2017-11-18T20:51:38.853Z,9.65
2017-11-18T20:54:07.772Z,10.35
2017-11-18T20:56:36.968Z,11.02
2017-11-18T20:59:05.608Z,9.73
2017-11-18T21:01:34.454Z,11.05
2017-11-18T21:04:03.322Z,9.93
2017-11-18T21:06:32.598Z,9.30
2017-11-18T21:09:02.100Z,9.93
2017-11-18T21:11:30.870Z,10.18
2017-11-18T21:14:00.367Z,9.93
2017-11-18T21:16:29.707Z,10.90
2017-11-18T21:18:58.537Z,11.23
2017-11-18T21:21:27.159Z,10.80
2017-11-18T21:23:55.901Z,11.15
2017-11-18T21:26:25.100Z,9.93
2017-11-18T21:28:54.168Z,12.23
2017-11-18T21:31:23.115Z,10.57
2017-11-18T21:33:51.952Z,11.68
2017-11-18T21:36:21.260Z,12.40
2017-11-18T21:38:49.965Z,12.50
2017-11-18T21:41:18.819Z,12.63
2017-11-18T21:43:47.468Z,13.80
2017-11-18T21:46:15.894Z,12.75
2017-11-18T21:48:44.309Z,12.35
2017-11-18T21:51:12.756Z,14.77
2017-11-18T21:53:41.230Z,13.43
2017-11-18T21:56:09.626Z,15.45
2017-11-18T21:58:38.236Z,15.13
2017-11-18T22:01:06.731Z,16.73
2017-11-18T22:03:35.998Z,16.23
2017-11-18T22:06:04.388Z,15.68
2017-11-18T22:08:33.662Z,16.37
2017-11-18T22:11:02.294Z,15.98
2017-11-18T22:13:31.101Z,15.82
2017-11-18T22:16:00.033Z,15.02
2017-11-18T22:18:28.724Z,14.90
2017-11-18T22:20:57.353Z,14.48
2017-11-18T22:23:26.259Z,15.80
2017-11-18T22:25:54.852Z,15.18
2017-11-18T22:28:23.576Z,15.65
2017-11-18T22:30:52.142Z,13.20
2017-11-18T22:33:20.541Z,12.70
2017-11-18T22:35:48.939Z,12.88
2017-11-18T22:38:18.091Z,12.00
2017-11-18T22:40:46.801Z,14.05
2017-11-18T22:43:15.239Z,12.15
2017-11-18T22:45:43.838Z,11.90
2017-11-18T22:48:13.088Z,13.45
2017-11-18T22:50:42.699Z,12.95
2017-11-18T22:53:12.357Z,12.93
2017-11-18T22:55:40.832Z,14.00
2017-11-18T22:58:09.219Z,13.73
2017-11-18T23:00:44.406Z,13.45
2017-11-18T23:03:12.912Z,11.90
2017-11-18T23:05:41.608Z,11.23
2017-11-18T23:08:09.994Z,11.55
2017-11-18T23:10:39.139Z,11.70
2017-11-18T23:13:08.329Z,11.45
2017-11-18T23:15:37.472Z,11.73
2017-11-18T23:18:05.878Z,12.23
2017-11-18T23:20:34.282Z,11.50
2017-11-18T23:23:03.422Z,12.52
2017-11-18T23:25:31.847Z,12.10
2017-11-18T23:28:00.294Z,11.43
2017-11-18T23:30:28.977Z,10.82
2017-11-18T23:32:57.353Z,10.95
2017-11-18T23:35:25.733Z,11.90
2017-11-18T23:37:54.924Z,11.38
2017-11-18T23:40:23.294Z,10.75
2017-11-18T23:45:26.416Z,12.13
2017-11-18T23:47:54.855Z,10.98
2017-11-18T23:50:24.023Z,10.57
2017-11-18T23:52:52.412Z,9.38
2017-11-18T23:55:20.879Z,9.88
2017-11-18T23:57:49.289Z,9.82
